Time;durP1;ratioP1;P1;durP2;ratioP2;P2;SDS_P1;SDS_P2;PMS_P1;PMS_P2;Temp;Humidity;BMP_temperature;BMP_pressure;BME280_temperature;BME280_humidity;BME280_pressure;Samples;Min_cycle;Max_cycle;Signal;HPM_P1;HPM_P2
2023/08/05 00:01:01;;;;;;;7.15;5.60;;;;;;;;;;5095727;28;20536;-72
2023/08/05 00:03:28;;;;;;;6.05;5.28;;;;;;;;;;5096118;28;20490;-72
2023/08/05 00:05:56;;;;;;;7.90;5.00;;;;;;;;;;5095720;28;20127;-72
2023/08/05 00:08:24;;;;;;;7.85;5.35;;;;;;;;;;5095140;28;20540;-73
2023/08/05 00:10:51;;;;;;;5.10;4.60;;;;;;;;;;5095131;28;20131;-72
2023/08/05 00:13:19;;;;;;;6.28;4.50;;;;;;;;;;5095184;28;20036;-73
2023/08/05 00:15:47;;;;;;;7.75;4.60;;;;;;;;;;5094899;28;20044;-72
2023/08/05 00:18:14;;;;;;;7.57;5.05;;;;;;;;;;5094959;28;20066;-72
2023/08/05 00:20:43;;;;;;;6.70;4.75;;;;;;;;;;5095076;28;20040;-72
2023/08/05 00:23:10;;;;;;;7.22;4.80;;;;;;;;;;5095001;28;20119;-72
2023/08/05 00:25:38;;;;;;;5.05;4.55;;;;;;;;;;5094927;28;20035;-72
2023/08/05 00:28:05;;;;;;;6.38;5.22;;;;;;;;;;5094803;28;20070;-72
2023/08/05 00:30:33;;;;;;;5.75;4.85;;;;;;;;;;5093470;28;20048;-72
2023/08/05 00:33:01;;;;;;;8.68;5.22;;;;;;;;;;5093392;28;20489;-72
2023/08/05 00:35:29;;;;;;;6.13;5.07;;;;;;;;;;5093357;28;20076;-72
2023/08/05 00:37:56;;;;;;;8.07;5.45;;;;;;;;;;5093571;28;20508;-71
2023/08/05 00:40:24;;;;;;;7.70;5.32;;;;;;;;;;5093364;28;20091;-71
2023/08/05 00:42:51;;;;;;;5.30;4.60;;;;;;;;;;5093209;28;20505;-71
2023/08/05 00:45:19;;;;;;;6.75;5.20;;;;;;;;;;5093161;28;20051;-71
2023/08/05 00:47:47;;;;;;;8.80;4.88;;;;;;;;;;5093376;28;20120;-71
2023/08/05 00:50:14;;;;;;;8.10;4.70;;;;;;;;;;5094420;28;20424;-71
2023/08/05 00:52:43;;;;;;;9.70;5.10;;;;;;;;;;5076467;28;20036;-70
2023/08/05 00:55:11;;;;;;;5.88;4.90;;;;;;;;;;5093058;28;20207;-70
2023/08/05 00:57:41;;;;;;;6.88;4.18;;;;;;;;;;5094403;28;20036;-71
2023/08/05 01:00:09;;;;;;;4.45;3.97;;;;;;;;;;5094071;28;20397;-71
2023/08/05 01:02:36;;;;;;;5.22;3.95;;;;;;;;;;5092710;28;20127;-72
2023/08/05 01:05:04;;;;;;;5.00;4.03;;;;;;;;;;5094149;28;20501;-70
2023/08/05 01:07:32;;;;;;;7.07;4.05;;;;;;;;;;5092758;28;20071;-72
2023/08/05 01:10:00;;;;;;;6.95;4.47;;;;;;;;;;5092799;28;20052;-70
2023/08/05 01:12:27;;;;;;;4.57;3.88;;;;;;;;;;5092639;28;20051;-71
2023/08/05 01:14:55;;;;;;;8.30;4.20;;;;;;;;;;5092483;28;20464;-70
2023/08/05 01:17:22;;;;;;;4.20;3.65;;;;;;;;;;5092435;28;20050;-70
2023/08/05 01:19:51;;;;;;;5.00;3.30;;;;;;;;;;5092646;28;20059;-70
2023/08/05 01:22:23;;;;;;;9.73;4.13;;;;;;;;;;5093710;28;20040;-71
2023/08/05 01:24:58;;;;;;;6.18;3.60;;;;;;;;;;5093625;28;20119;-71
2023/08/05 01:27:27;;;;;;;4.63;3.30;;;;;;;;;;5092723;28;20100;-71
2023/08/05 01:29:55;;;;;;;6.95;3.72;;;;;;;;;;5093560;28;20042;-70
2023/08/05 01:32:23;;;;;;;6.47;3.50;;;;;;;;;;5092294;28;20485;-71
2023/08/05 01:34:50;;;;;;;5.68;3.70;;;;;;;;;;5092280;28;20082;-71
2023/08/05 01:37:18;;;;;;;9.90;3.55;;;;;;;;;;5092341;28;20059;-70
2023/08/05 01:39:48;;;;;;;6.00;3.40;;;;;;;;;;5093484;28;20040;-71
2023/08/05 01:42:16;;;;;;;3.70;3.30;;;;;;;;;;5093201;28;20051;-71
2023/08/05 01:44:43;;;;;;;4.38;3.20;;;;;;;;;;5093212;28;20486;-71
2023/08/05 01:47:11;;;;;;;7.35;3.88;;;;;;;;;;5092147;28;20490;-71
2023/08/05 01:49:38;;;;;;;4.10;3.47;;;;;;;;;;5093404;28;20521;-70
2023/08/05 01:52:06;;;;;;;6.65;3.42;;;;;;;;;;5091962;28;20130;-70
2023/08/05 01:54:33;;;;;;;4.00;3.25;;;;;;;;;;5093428;28;20040;-71
2023/08/05 01:57:01;;;;;;;6.03;3.63;;;;;;;;;;5092841;28;20074;-71
2023/08/05 01:59:28;;;;;;;5.88;3.55;;;;;;;;;;5091809;28;20105;-71
2023/08/05 02:01:56;;;;;;;5.32;3.60;;;;;;;;;;5091815;28;20055;-71
2023/08/05 02:04:23;;;;;;;5.03;3.50;;;;;;;;;;5092019;28;20405;-71
2023/08/05 02:06:51;;;;;;;3.80;3.33;;;;;;;;;;5091945;28;20040;-71
2023/08/05 02:09:19;;;;;;;6.50;3.60;;;;;;;;;;5092938;28;20044;-72
2023/08/05 02:11:47;;;;;;;4.40;3.50;;;;;;;;;;5091730;28;20390;-72
2023/08/05 02:14:14;;;;;;;4.85;4.00;;;;;;;;;;5091448;28;20528;-72
2023/08/05 02:16:42;;;;;;;5.13;3.97;;;;;;;;;;5091402;28;20047;-72
2023/08/05 02:19:10;;;;;;;5.90;3.90;;;;;;;;;;5092895;28;20047;-72
2023/08/05 02:21:39;;;;;;;8.07;4.20;;;;;;;;;;5091336;28;20040;-71
2023/08/05 02:24:09;;;;;;;5.95;4.85;;;;;;;;;;5091402;28;20044;-71
2023/08/05 02:26:37;;;;;;;5.05;3.95;;;;;;;;;;5092029;28;20048;-71
2023/08/05 02:29:05;;;;;;;6.75;4.68;;;;;;;;;;5091983;28;20032;-71
2023/08/05 02:31:33;;;;;;;5.03;4.22;;;;;;;;;;5092112;28;20093;-71
2023/08/05 02:34:00;;;;;;;7.10;4.55;;;;;;;;;;5092652;28;20043;-71
2023/08/05 02:36:28;;;;;;;6.47;4.70;;;;;;;;;;5092629;28;20039;-71
2023/08/05 02:38:55;;;;;;;6.82;5.20;;;;;;;;;;5090737;28;20139;-70
2023/08/05 02:41:23;;;;;;;6.10;4.80;;;;;;;;;;5092569;28;20044;-71
2023/08/05 02:43:50;;;;;;;6.20;5.00;;;;;;;;;;5091382;28;20487;-71
2023/08/05 02:46:18;;;;;;;6.32;4.60;;;;;;;;;;5091063;28;20051;-71
2023/08/05 02:48:45;;;;;;;7.32;5.10;;;;;;;;;;5091265;28;20040;-71
2023/08/05 02:51:13;;;;;;;6.18;4.90;;;;;;;;;;5091063;28;20470;-71
2023/08/05 02:53:41;;;;;;;7.03;4.65;;;;;;;;;;5090768;28;20044;-71
2023/08/05 02:56:08;;;;;;;7.18;5.13;;;;;;;;;;5093859;28;20127;-71
2023/08/05 02:58:36;;;;;;;8.05;5.57;;;;;;;;;;5094984;28;20101;-71
2023/08/05 03:01:10;;;;;;;8.18;6.00;;;;;;;;;;5095268;28;20075;-73
2023/08/05 03:03:37;;;;;;;6.63;5.27;;;;;;;;;;5095030;28;20047;-72
2023/08/05 03:06:05;;;;;;;7.15;5.43;;;;;;;;;;5095175;28;20284;-71
2023/08/05 03:08:32;;;;;;;9.65;5.82;;;;;;;;;;5095061;28;20067;-70
2023/08/05 03:11:01;;;;;;;7.93;5.72;;;;;;;;;;5095073;28;20036;-71
2023/08/05 03:13:31;;;;;;;8.50;6.20;;;;;;;;;;5095003;28;20409;-71
2023/08/05 03:16:12;;;;;;;7.90;5.78;;;;;;;;;;5095268;28;20055;-71
2023/08/05 03:19:03;;;;;;;7.65;5.90;;;;;;;;;;5096308;28;20496;-72
2023/08/05 03:21:32;;;;;;;8.68;5.78;;;;;;;;;;5094896;28;20721;-72
2023/08/05 03:24:01;;;;;;;7.75;6.40;;;;;;;;;;5103530;28;20074;-72
2023/08/05 03:26:30;;;;;;;9.10;6.47;;;;;;;;;;5100107;28;20159;-71
2023/08/05 03:29:03;;;;;;;10.88;6.93;;;;;;;;;;5094500;28;20036;-72
2023/08/05 03:31:31;;;;;;;10.30;6.93;;;;;;;;;;5094805;28;20048;-72
2023/08/05 03:34:01;;;;;;;10.60;6.90;;;;;;;;;;5096237;28;20040;-71
2023/08/05 03:36:31;;;;;;;7.13;6.43;;;;;;;;;;5094499;28;20040;-72
2023/08/05 03:38:58;;;;;;;8.50;7.00;;;;;;;;;;5095951;28;20043;-73
2023/08/05 03:41:26;;;;;;;7.75;6.97;;;;;;;;;;5095212;28;20042;-72
2023/08/05 03:43:54;;;;;;;7.80;7.00;;;;;;;;;;5094138;28;20085;-71
2023/08/05 03:46:22;;;;;;;8.27;7.25;;;;;;;;;;5095509;28;20502;-71
2023/08/05 03:48:49;;;;;;;9.38;7.68;;;;;;;;;;5095699;28;20119;-72
2023/08/05 03:51:19;;;;;;;11.38;8.15;;;;;;;;;;5094607;28;20135;-72
2023/08/05 03:53:46;;;;;;;10.65;7.95;;;;;;;;;;5094796;28;20044;-72
2023/08/05 03:56:18;;;;;;;10.25;7.95;;;;;;;;;;5094967;28;20085;-71
2023/08/05 03:58:48;;;;;;;8.73;7.73;;;;;;;;;;5094071;28;20059;-72
2023/08/05 04:01:17;;;;;;;9.90;7.80;;;;;;;;;;5093046;28;20078;-71
2023/08/05 04:03:45;;;;;;;10.70;8.45;;;;;;;;;;5093199;28;20095;-71
2023/08/05 04:06:13;;;;;;;10.20;8.48;;;;;;;;;;5092589;28;20581;-71
2023/08/05 04:08:41;;;;;;;10.23;9.13;;;;;;;;;;5092951;28;20413;-70
2023/08/05 04:11:09;;;;;;;9.88;8.82;;;;;;;;;;5094184;28;20759;-71
2023/08/05 04:13:40;;;;;;;11.45;9.63;;;;;;;;;;5092621;28;20047;-71
2023/08/05 04:16:09;;;;;;;10.45;9.13;;;;;;;;;;5072609;28;20052;-72
2023/08/05 04:18:40;;;;;;;13.40;10.38;;;;;;;;;;5072604;28;20044;-72
2023/08/05 04:21:10;;;;;;;11.02;9.93;;;;;;;;;;5072552;28;20052;-70
2023/08/05 04:23:39;;;;;;;12.18;10.38;;;;;;;;;;5086143;28;20089;-71
2023/08/05 04:26:07;;;;;;;13.10;9.82;;;;;;;;;;5093853;28;20440;-70
2023/08/05 04:28:35;;;;;;;11.40;10.20;;;;;;;;;;5093905;28;20051;-70
2023/08/05 04:31:03;;;;;;;11.65;10.45;;;;;;;;;;5093830;28;20048;-69
2023/08/05 04:33:32;;;;;;;10.57;9.40;;;;;;;;;;5094098;28;20147;-70
2023/08/05 04:35:59;;;;;;;10.60;9.50;;;;;;;;;;5093767;28;20066;-70
2023/08/05 04:38:27;;;;;;;11.23;9.25;;;;;;;;;;5093939;28;20585;-70
2023/08/05 04:40:54;;;;;;;10.88;9.70;;;;;;;;;;5093607;28;20044;-69
2023/08/05 04:43:22;;;;;;;11.15;9.30;;;;;;;;;;5093446;28;20050;-71
2023/08/05 04:45:54;;;;;;;12.98;9.70;;;;;;;;;;5093578;28;20050;-70
2023/08/05 04:48:22;;;;;;;11.35;8.70;;;;;;;;;;5092621;28;20058;-70
2023/08/05 04:50:49;;;;;;;10.70;8.32;;;;;;;;;;5092308;28;20047;-69
2023/08/05 04:53:17;;;;;;;12.15;9.15;;;;;;;;;;5093831;28;20497;-70
2023/08/05 04:55:44;;;;;;;9.63;8.27;;;;;;;;;;5093330;28;20119;-70
2023/08/05 04:58:12;;;;;;;10.27;8.43;;;;;;;;;;5093391;28;20505;-71
2023/08/05 05:00:56;;;;;;;9.52;8.63;;;;;;;;;;5090039;27;20448;-70
2023/08/05 05:03:25;;;;;;;13.13;9.10;;;;;;;;;;5090192;28;20070;-70
2023/08/05 05:05:53;;;;;;;9.98;7.82;;;;;;;;;;5090180;28;20127;-71
2023/08/05 05:08:22;;;;;;;9.48;8.40;;;;;;;;;;5090096;28;20040;-71
2023/08/05 05:10:49;;;;;;;12.10;7.72;;;;;;;;;;5090035;28;20563;-71
2023/08/05 05:13:17;;;;;;;13.50;8.30;;;;;;;;;;5089955;28;20056;-71
2023/08/05 05:15:44;;;;;;;9.15;7.78;;;;;;;;;;5089891;28;20058;-71
2023/08/05 05:18:12;;;;;;;9.65;7.70;;;;;;;;;;5089959;28;20112;-71
2023/08/05 05:20:39;;;;;;;9.48;7.55;;;;;;;;;;5089613;28;20105;-71
2023/08/05 05:23:07;;;;;;;8.48;7.03;;;;;;;;;;5089885;28;20036;-71
2023/08/05 05:25:34;;;;;;;11.70;7.00;;;;;;;;;;5089682;28;20052;-71
2023/08/05 05:28:02;;;;;;;7.80;7.00;;;;;;;;;;5089725;28;20064;-71
2023/08/05 05:30:29;;;;;;;10.10;7.43;;;;;;;;;;5072089;28;20528;-71
2023/08/05 05:32:57;;;;;;;9.05;6.90;;;;;;;;;;5089529;28;20040;-71
2023/08/05 05:35:25;;;;;;;8.13;6.88;;;;;;;;;;5089622;28;20040;-71
2023/08/05 05:37:53;;;;;;;9.15;7.20;;;;;;;;;;5089453;28;20040;-71
2023/08/05 05:40:20;;;;;;;11.15;7.68;;;;;;;;;;5089372;28;20036;-70
2023/08/05 05:42:49;;;;;;;8.68;7.55;;;;;;;;;;5089524;28;20036;-71
2023/08/05 05:45:17;;;;;;;10.55;7.88;;;;;;;;;;5089697;28;20048;-71
2023/08/05 05:47:44;;;;;;;11.35;7.85;;;;;;;;;;5089451;28;20127;-71
2023/08/05 05:50:12;;;;;;;9.07;6.90;;;;;;;;;;5089328;28;20448;-69
2023/08/05 05:52:40;;;;;;;7.43;6.72;;;;;;;;;;5071137;28;20040;-71
2023/08/05 05:55:08;;;;;;;9.55;6.97;;;;;;;;;;5089314;28;20072;-71
2023/08/05 05:57:36;;;;;;;7.55;6.18;;;;;;;;;;5088982;28;20040;-71
2023/08/05 06:00:05;;;;;;;7.13;6.15;;;;;;;;;;5088714;28;20056;-71
2023/08/05 06:02:38;;;;;;;8.60;6.90;;;;;;;;;;5089108;28;20079;-71
2023/08/05 06:05:06;;;;;;;8.65;5.78;;;;;;;;;;5089020;28;20119;-71
2023/08/05 06:07:34;;;;;;;8.65;6.90;;;;;;;;;;5088905;28;20042;-70
2023/08/05 06:10:01;;;;;;;9.15;6.88;;;;;;;;;;5088348;28;20453;-70
2023/08/05 06:12:32;;;;;;;8.65;6.20;;;;;;;;;;5074939;28;20040;-71
2023/08/05 06:15:00;;;;;;;6.72;6.05;;;;;;;;;;5075405;28;20095;-71
2023/08/05 06:17:28;;;;;;;9.60;6.20;;;;;;;;;;5076011;28;20033;-71
2023/08/05 06:19:55;;;;;;;9.30;5.57;;;;;;;;;;5075551;28;20037;-70
2023/08/05 06:22:23;;;;;;;6.07;5.38;;;;;;;;;;5075644;28;20544;-70
2023/08/05 06:24:51;;;;;;;11.52;5.72;;;;;;;;;;5075308;28;20052;-71
2023/08/05 06:27:18;;;;;;;6.30;5.65;;;;;;;;;;5057539;28;20432;-71
2023/08/05 06:29:46;;;;;;;9.52;5.70;;;;;;;;;;5075124;28;20105;-71
2023/08/05 06:32:13;;;;;;;11.80;5.40;;;;;;;;;;5075125;28;20033;-71
2023/08/05 06:34:41;;;;;;;9.80;5.85;;;;;;;;;;5074887;28;20070;-70
2023/08/05 06:37:08;;;;;;;6.75;5.97;;;;;;;;;;5074162;28;20037;-71
2023/08/05 06:39:36;;;;;;;6.05;5.15;;;;;;;;;;5074716;28;20056;-70
2023/08/05 06:42:04;;;;;;;8.25;5.35;;;;;;;;;;5075084;28;20041;-71
2023/08/05 06:44:37;;;;;;;21.85;6.78;;;;;;;;;;5057691;28;20044;-71
2023/08/05 06:47:05;;;;;;;6.93;5.30;;;;;;;;;;5075620;28;20500;-70
2023/08/05 06:49:34;;;;;;;84.18;12.65;;;;;;;;;;5075198;28;20071;-70
2023/08/05 06:52:02;;;;;;;58.58;11.05;;;;;;;;;;5074618;28;20048;-71
2023/08/05 06:54:29;;;;;;;45.20;10.40;;;;;;;;;;5057038;28;20041;-73
2023/08/05 06:56:57;;;;;;;47.75;10.43;;;;;;;;;;5075167;28;20051;-72
2023/08/05 06:59:26;;;;;;;62.80;13.27;;;;;;;;;;5037103;28;20057;-72
2023/08/05 07:01:54;;;;;;;116.38;19.50;;;;;;;;;;5054498;28;20064;-71
2023/08/05 07:04:22;;;;;;;62.17;11.93;;;;;;;;;;5054407;28;20261;-72
2023/08/05 07:06:49;;;;;;;85.72;17.05;;;;;;;;;;5054231;28;20094;-71
2023/08/05 07:09:17;;;;;;;33.72;8.80;;;;;;;;;;5054083;28;20546;-71
2023/08/05 07:11:45;;;;;;;6.50;4.40;;;;;;;;;;5054234;28;20052;-70
2023/08/05 07:14:12;;;;;;;38.20;9.02;;;;;;;;;;5054105;28;20044;-71
2023/08/05 07:16:40;;;;;;;14.45;5.75;;;;;;;;;;5054204;28;20083;-71
2023/08/05 07:19:08;;;;;;;7.53;4.55;;;;;;;;;;5054022;28;20120;-71
2023/08/05 07:21:38;;;;;;;7.50;4.35;;;;;;;;;;5053877;28;20076;-71
2023/08/05 07:24:05;;;;;;;6.75;4.30;;;;;;;;;;5053210;28;20079;-71
2023/08/05 07:26:33;;;;;;;6.00;4.13;;;;;;;;;;5053779;28;20041;-71
2023/08/05 07:29:00;;;;;;;5.18;4.10;;;;;;;;;;5053890;28;20037;-71
2023/08/05 07:31:28;;;;;;;8.90;4.82;;;;;;;;;;5053717;28;20075;-71
2023/08/05 07:33:55;;;;;;;16.05;4.40;;;;;;;;;;5053776;28;20036;-70
2023/08/05 07:36:23;;;;;;;7.93;4.30;;;;;;;;;;5053795;28;20041;-72
2023/08/05 07:38:51;;;;;;;6.22;3.80;;;;;;;;;;5053630;28;20116;-72
2023/08/05 07:41:21;;;;;;;7.13;3.70;;;;;;;;;;5053659;28;20064;-72
2023/08/05 07:43:50;;;;;;;5.50;3.92;;;;;;;;;;5053571;28;20044;-71
2023/08/05 07:46:19;;;;;;;4.97;3.50;;;;;;;;;;5053564;28;20047;-71
2023/08/05 07:48:50;;;;;;;5.47;3.30;;;;;;;;;;5053727;28;20116;-73
2023/08/05 07:51:18;;;;;;;5.15;3.58;;;;;;;;;;5054470;28;20059;-72
2023/08/05 07:53:48;;;;;;;5.35;3.70;;;;;;;;;;5053971;28;20047;-72
2023/08/05 07:56:16;;;;;;;7.10;3.47;;;;;;;;;;5053489;28;20129;-71
2023/08/05 07:58:46;;;;;;;3.72;3.30;;;;;;;;;;5055607;28;20043;-71
2023/08/05 08:01:21;;;;;;;6.03;3.63;;;;;;;;;;5073040;28;20048;-71
2023/08/05 08:03:53;;;;;;;6.70;3.40;;;;;;;;;;5073154;28;20041;-71
2023/08/05 08:06:21;;;;;;;13.55;4.25;;;;;;;;;;5073836;28;20124;-72
2023/08/05 08:08:49;;;;;;;12.48;4.20;;;;;;;;;;5072882;28;20044;-71
2023/08/05 08:11:17;;;;;;;6.95;3.35;;;;;;;;;;5054938;28;20490;-71
2023/08/05 08:13:44;;;;;;;6.72;3.47;;;;;;;;;;5073069;28;20080;-72
2023/08/05 08:16:13;;;;;;;6.18;3.05;;;;;;;;;;5072906;28;20040;-71
2023/08/05 08:18:41;;;;;;;5.53;3.33;;;;;;;;;;5073038;28;20106;-71
2023/08/05 08:21:08;;;;;;;5.25;3.38;;;;;;;;;;5073129;28;20055;-71
2023/08/05 08:23:36;;;;;;;3.80;2.80;;;;;;;;;;5072892;28;20067;-71
2023/08/05 08:26:03;;;;;;;8.65;3.30;;;;;;;;;;5072930;28;20390;-71
2023/08/05 08:28:31;;;;;;;7.60;3.20;;;;;;;;;;5072764;28;20471;-71
2023/08/05 08:30:58;;;;;;;5.43;3.22;;;;;;;;;;5072657;28;20044;-70
2023/08/05 08:33:26;;;;;;;6.35;3.20;;;;;;;;;;5072481;28;20064;-72
2023/08/05 08:35:54;;;;;;;4.68;2.97;;;;;;;;;;5072724;28;20127;-69
2023/08/05 08:38:25;;;;;;;4.07;2.63;;;;;;;;;;5072594;28;20056;-71
2023/08/05 08:40:53;;;;;;;5.10;3.00;;;;;;;;;;5072472;28;20045;-70
2023/08/05 08:43:21;;;;;;;4.43;2.80;;;;;;;;;;5072669;28;20032;-71
2023/08/05 08:45:51;;;;;;;4.80;2.88;;;;;;;;;;5071203;28;20056;-71
2023/08/05 08:48:22;;;;;;;4.53;2.65;;;;;;;;;;5072471;28;20565;-71
2023/08/05 08:50:52;;;;;;;4.68;2.70;;;;;;;;;;5072525;28;20182;-72
2023/08/05 08:53:20;;;;;;;5.35;2.88;;;;;;;;;;5072418;28;20436;-74
2023/08/05 08:55:48;;;;;;;6.45;2.92;;;;;;;;;;5072369;28;20052;-72
2023/08/05 08:58:16;;;;;;;4.35;2.60;;;;;;;;;;5072453;28;20091;-72
2023/08/05 09:00:44;;;;;;;7.57;2.75;;;;;;;;;;5072237;28;20091;-72
2023/08/05 09:03:13;;;;;;;4.47;2.40;;;;;;;;;;5072428;28;20408;-73
2023/08/05 09:05:45;;;;;;;3.22;2.30;;;;;;;;;;5072389;28;20067;-72
2023/08/05 09:08:14;;;;;;;3.55;2.40;;;;;;;;;;5054743;28;20090;-71
2023/08/05 09:10:43;;;;;;;4.45;2.22;;;;;;;;;;5072626;28;20429;-72
2023/08/05 09:13:12;;;;;;;6.40;2.33;;;;;;;;;;5072298;28;20045;-71
2023/08/05 09:15:40;;;;;;;11.57;2.45;;;;;;;;;;5072532;28;20037;-71
2023/08/05 09:18:08;;;;;;;2.92;2.13;;;;;;;;;;5072234;28;20041;-71
2023/08/05 09:20:36;;;;;;;9.73;2.78;;;;;;;;;;5072346;28;20046;-72
2023/08/05 09:23:05;;;;;;;3.92;2.08;;;;;;;;;;5054599;28;20470;-71
2023/08/05 09:25:33;;;;;;;2.63;2.00;;;;;;;;;;5072196;28;20036;-70
2023/08/05 09:28:01;;;;;;;4.07;2.50;;;;;;;;;;5072183;28;20040;-71
2023/08/05 09:30:28;;;;;;;3.47;2.22;;;;;;;;;;5054136;28;20094;-70
2023/08/05 09:32:59;;;;;;;3.30;2.22;;;;;;;;;;5072089;28;20068;-71
2023/08/05 09:35:26;;;;;;;4.03;2.00;;;;;;;;;;5072161;28;20048;-71
2023/08/05 09:37:54;;;;;;;5.22;2.25;;;;;;;;;;5072096;28;20037;-71
2023/08/05 09:40:22;;;;;;;4.05;2.40;;;;;;;;;;5071810;28;20044;-71
2023/08/05 09:42:50;;;;;;;3.92;2.30;;;;;;;;;;5072034;28;20067;-71
2023/08/05 09:45:20;;;;;;;5.53;2.30;;;;;;;;;;5071719;28;20111;-71
2023/08/05 09:47:52;;;;;;;3.42;2.30;;;;;;;;;;5058037;28;20394;-71
2023/08/05 09:50:20;;;;;;;3.63;2.30;;;;;;;;;;5075869;28;20052;-71
2023/08/05 09:52:51;;;;;;;5.80;2.28;;;;;;;;;;5075591;28;20045;-70
2023/08/05 09:55:21;;;;;;;3.42;2.55;;;;;;;;;;5075529;28;20044;-71
2023/08/05 09:57:49;;;;;;;8.13;2.55;;;;;;;;;;5075639;28;20555;-71
2023/08/05 10:00:17;;;;;;;3.72;1.90;;;;;;;;;;5075324;28;20056;-71
2023/08/05 10:02:45;;;;;;;4.95;2.65;;;;;;;;;;5075333;28;20068;-70
2023/08/05 10:05:13;;;;;;;6.38;2.50;;;;;;;;;;5075457;28;20040;-71
2023/08/05 10:07:41;;;;;;;7.38;2.63;;;;;;;;;;5075342;28;20052;-70
2023/08/05 10:10:15;;;;;;;4.07;2.10;;;;;;;;;;5057808;28;20061;-71
2023/08/05 10:13:08;;;;;;;3.22;2.10;;;;;;;;;;5075298;28;20072;-71
2023/08/05 10:15:38;;;;;;;6.80;2.42;;;;;;;;;;5066615;28;20130;-71
2023/08/05 10:18:12;;;;;;;3.38;2.40;;;;;;;;;;5075180;28;20114;-71
2023/08/05 10:20:39;;;;;;;;;;;;;;;;;;5075667;28;20132;-72
2023/08/05 10:23:14;;;;;;;3.72;2.33;;;;;;;;;;5075126;28;19924;-70
2023/08/05 10:25:41;;;;;;;4.38;2.67;;;;;;;;;;5075082;28;20041;-70
2023/08/05 10:28:09;;;;;;;5.05;2.80;;;;;;;;;;5075087;28;20497;-71
2023/08/05 10:30:41;;;;;;;7.20;2.58;;;;;;;;;;5074989;28;20123;-71
2023/08/05 10:33:10;;;;;;;3.63;2.28;;;;;;;;;;5074773;28;20044;-70
2023/08/05 10:35:41;;;;;;;5.40;2.30;;;;;;;;;;5074856;28;20048;-70
2023/08/05 10:38:12;;;;;;;4.45;2.40;;;;;;;;;;5074949;28;20048;-71
2023/08/05 10:40:43;;;;;;;;;;;;;;;;;;5075156;28;20101;-71
2023/08/05 10:43:10;;;;;;;5.95;2.30;;;;;;;;;;5074806;28;19920;-71
2023/08/05 10:45:40;;;;;;;4.75;2.10;;;;;;;;;;5075006;28;20061;-71
2023/08/05 10:48:09;;;;;;;2.42;2.20;;;;;;;;;;5074718;28;20409;-71
2023/08/05 10:50:38;;;;;;;3.08;2.40;;;;;;;;;;5074724;28;20044;-71
2023/08/05 10:53:06;;;;;;;3.63;2.00;;;;;;;;;;5074677;28;20045;-71
2023/08/05 10:55:45;;;;;;;3.58;2.03;;;;;;;;;;5074606;28;20121;-71
2023/08/05 10:58:13;;;;;;;3.42;2.00;;;;;;;;;;5056509;28;20067;-71
2023/08/05 11:00:42;;;;;;;6.15;2.40;;;;;;;;;;5074129;28;20048;-71
2023/08/05 11:03:24;;;;;;;4.25;2.28;;;;;;;;;;5073866;28;20516;-71
2023/08/05 11:05:54;;;;;;;6.00;2.55;;;;;;;;;;5073746;28;20127;-71
2023/08/05 11:08:22;;;;;;;5.28;2.20;;;;;;;;;;5074272;28;20082;-71
2023/08/05 11:10:50;;;;;;;4.25;2.08;;;;;;;;;;5073667;28;20670;-71
2023/08/05 11:13:18;;;;;;;4.95;2.13;;;;;;;;;;5070547;28;20046;-71
2023/08/05 11:16:05;;;;;;;4.70;2.30;;;;;;;;;;5055014;28;20051;-71
2023/08/05 11:18:33;;;;;;;5.30;2.22;;;;;;;;;;5065918;28;20090;-72
2023/08/05 11:21:01;;;;;;;3.50;2.15;;;;;;;;;;5068691;28;20037;-71
2023/08/05 11:23:29;;;;;;;2.65;1.83;;;;;;;;;;5066814;28;20040;-72
2023/08/05 11:25:59;;;;;;;2.95;1.80;;;;;;;;;;5065939;28;20051;-71
2023/08/05 11:28:27;;;;;;;2.53;2.10;;;;;;;;;;5061935;28;20029;-71
2023/08/05 11:30:54;;;;;;;2.88;1.80;;;;;;;;;;5068383;28;20036;-72
2023/08/05 11:33:22;;;;;;;7.00;2.40;;;;;;;;;;5065049;28;20033;-70
2023/08/05 11:35:52;;;;;;;3.20;1.90;;;;;;;;;;5058140;28;20553;-70
2023/08/05 11:38:20;;;;;;;4.93;2.05;;;;;;;;;;5056132;28;20033;-72
2023/08/05 11:40:55;;;;;;;1.60;1.50;;;;;;;;;;5065589;28;20136;-71
2023/08/05 11:43:23;;;;;;;2.75;1.90;;;;;;;;;;5060797;28;20086;-75
2023/08/05 11:45:51;;;;;;;4.97;2.10;;;;;;;;;;5043385;28;20065;-70
2023/08/05 11:48:23;;;;;;;4.63;1.90;;;;;;;;;;5039534;28;20049;-70
2023/08/05 11:50:52;;;;;;;4.40;1.70;;;;;;;;;;5059795;28;20072;-69
2023/08/05 11:53:19;;;;;;;3.45;1.80;;;;;;;;;;5058014;28;20120;-70
2023/08/05 11:55:47;;;;;;;3.28;1.92;;;;;;;;;;5065630;28;20053;-70
2023/08/05 11:58:15;;;;;;;3.95;2.10;;;;;;;;;;5063752;28;20056;-71
2023/08/05 12:00:44;;;;;;;5.10;2.13;;;;;;;;;;5051385;28;20053;-71
2023/08/05 12:03:11;;;;;;;3.78;1.90;;;;;;;;;;5057012;28;20113;-71
2023/08/05 12:05:39;;;;;;;4.07;2.10;;;;;;;;;;5061138;28;20037;-71
2023/08/05 12:08:06;;;;;;;10.00;9.00;;;;;;;;;;5059964;28;20036;-71
2023/08/05 12:10:34;;;;;;;37.33;33.65;;;;;;;;;;5043142;28;20040;-70
2023/08/05 12:13:05;;;;;;;36.53;32.72;;;;;;;;;;5050682;28;20045;-70
2023/08/05 12:15:33;;;;;;;19.70;17.58;;;;;;;;;;5059994;28;20037;-70
2023/08/05 12:18:02;;;;;;;15.88;13.00;;;;;;;;;;5057944;28;20047;-71
2023/08/05 12:20:31;;;;;;;18.60;14.20;;;;;;;;;;5051827;28;20028;-70
2023/08/05 12:22:59;;;;;;;21.70;18.73;;;;;;;;;;5060027;28;20094;-70
2023/08/05 12:25:26;;;;;;;19.95;16.17;;;;;;;;;;5059518;28;20033;-70
2023/08/05 12:27:54;;;;;;;10.18;8.35;;;;;;;;;;5056375;28;20387;-71
2023/08/05 12:30:22;;;;;;;20.60;18.17;;;;;;;;;;5060716;28;20036;-71
2023/08/05 12:32:50;;;;;;;8.57;5.85;;;;;;;;;;5067165;28;20037;-70
2023/08/05 12:35:18;;;;;;;6.45;4.70;;;;;;;;;;5057249;28;20064;-70
2023/08/05 12:37:45;;;;;;;3.63;2.53;;;;;;;;;;5053724;28;20049;-72
2023/08/05 12:40:13;;;;;;;2.78;2.20;;;;;;;;;;5057621;28;20420;-73
2023/08/05 12:42:41;;;;;;;76.45;64.43;;;;;;;;;;5064529;28;20052;-71
2023/08/05 12:45:09;;;;;;;40.25;33.28;;;;;;;;;;5059654;28;20037;-71
2023/08/05 12:47:38;;;;;;;14.00;10.18;;;;;;;;;;5056567;28;20501;-71
2023/08/05 12:50:07;;;;;;;4.85;2.25;;;;;;;;;;5056875;28;20034;-71
2023/08/05 12:52:35;;;;;;;8.57;6.40;;;;;;;;;;5057914;28;20037;-71
2023/08/05 12:55:03;;;;;;;10.52;8.40;;;;;;;;;;5056999;28;20041;-71
2023/08/05 12:57:32;;;;;;;4.13;2.53;;;;;;;;;;5050621;28;20410;-74
2023/08/05 13:00:00;;;;;;;15.05;12.00;;;;;;;;;;5055790;28;20392;-71
2023/08/05 13:02:28;;;;;;;46.13;39.35;;;;;;;;;;5044588;28;20036;-72
2023/08/05 13:04:55;;;;;;;27.45;23.27;;;;;;;;;;5058460;28;20037;-71
2023/08/05 13:07:23;;;;;;;6.90;5.30;;;;;;;;;;5060427;28;20087;-71
2023/08/05 13:09:51;;;;;;;5.57;3.67;;;;;;;;;;5056571;28;20040;-71
2023/08/05 13:12:18;;;;;;;3.88;2.60;;;;;;;;;;5056613;28;20037;-72
2023/08/05 13:14:46;;;;;;;4.88;3.53;;;;;;;;;;5056973;28;20041;-70
2023/08/05 13:17:13;;;;;;;4.50;2.38;;;;;;;;;;5057204;28;20040;-71
2023/08/05 13:19:42;;;;;;;3.05;2.00;;;;;;;;;;5052058;28;20063;-70
2023/08/05 13:22:09;;;;;;;2.35;1.60;;;;;;;;;;5057421;28;20132;-72
2023/08/05 13:24:37;;;;;;;37.42;32.80;;;;;;;;;;5064754;28;20032;-72
2023/08/05 13:27:05;;;;;;;21.17;18.88;;;;;;;;;;5062214;28;20479;-72
2023/08/05 13:29:32;;;;;;;3.92;2.42;;;;;;;;;;5062450;28;20059;-71
2023/08/05 13:32:00;;;;;;;3.08;1.73;;;;;;;;;;5071241;28;20047;-72
2023/08/05 13:34:27;;;;;;;2.58;2.10;;;;;;;;;;5061962;28;20478;-71
2023/08/05 13:36:55;;;;;;;3.55;2.78;;;;;;;;;;5067759;28;20044;-72
2023/08/05 13:39:23;;;;;;;6.55;2.97;;;;;;;;;;5064756;28;20034;-72
2023/08/05 13:41:56;;;;;;;3.55;2.10;;;;;;;;;;5055783;28;20524;-72
2023/08/05 13:44:26;;;;;;;3.45;2.35;;;;;;;;;;5037918;28;20049;-71
2023/08/05 13:46:54;;;;;;;14.73;12.55;;;;;;;;;;5055992;28;20045;-72
2023/08/05 13:49:21;;;;;;;5.47;2.55;;;;;;;;;;5055473;28;20116;-71
2023/08/05 13:51:50;;;;;;;20.52;2.50;;;;;;;;;;5055998;28;20045;-70
2023/08/05 13:54:19;;;;;;;6.60;2.03;;;;;;;;;;5038508;28;20478;-71
2023/08/05 13:56:46;;;;;;;4.70;2.20;;;;;;;;;;5038136;28;20064;-69
2023/08/05 13:59:14;;;;;;;4.40;2.78;;;;;;;;;;5055385;28;20052;-70
2023/08/05 14:01:45;;;;;;;3.88;2.10;;;;;;;;;;5055374;28;20554;-72
2023/08/05 14:04:15;;;;;;;5.15;2.20;;;;;;;;;;5055330;28;20080;-71
2023/08/05 14:06:42;;;;;;;4.50;3.47;;;;;;;;;;5055430;28;20037;-71
2023/08/05 14:09:10;;;;;;;6.03;4.03;;;;;;;;;;5071170;28;20044;-69
2023/08/05 14:11:37;;;;;;;3.63;2.50;;;;;;;;;;5056600;28;20056;-72
2023/08/05 14:14:05;;;;;;;5.82;2.90;;;;;;;;;;5065416;28;20037;-71
2023/08/05 14:16:35;;;;;;;7.07;2.80;;;;;;;;;;5067547;28;20057;-72
2023/08/05 14:19:03;;;;;;;5.80;3.58;;;;;;;;;;5051467;28;20763;-70
2023/08/05 14:21:30;;;;;;;4.20;2.78;;;;;;;;;;5066308;28;20074;-70
2023/08/05 14:23:58;;;;;;;7.97;4.63;;;;;;;;;;5065020;28;20098;-70
2023/08/05 14:26:26;;;;;;;6.80;3.38;;;;;;;;;;5054964;28;20037;-72
2023/08/05 14:28:53;;;;;;;6.15;3.60;;;;;;;;;;5043453;28;20076;-71
2023/08/05 14:31:25;;;;;;;4.57;2.70;;;;;;;;;;5074293;28;20049;-71
2023/08/05 14:33:53;;;;;;;2.97;2.30;;;;;;;;;;5074816;28;20522;-71
2023/08/05 14:36:21;;;;;;;4.78;2.78;;;;;;;;;;5074693;28;20052;-72
2023/08/05 14:38:49;;;;;;;6.90;3.17;;;;;;;;;;5074787;28;20040;-71
2023/08/05 14:41:16;;;;;;;9.23;2.95;;;;;;;;;;5074671;28;20037;-72
2023/08/05 14:43:44;;;;;;;7.90;2.90;;;;;;;;;;5074722;28;20120;-72
2023/08/05 14:46:12;;;;;;;3.05;2.47;;;;;;;;;;5075117;28;20097;-71
2023/08/05 14:48:39;;;;;;;6.88;2.78;;;;;;;;;;5074729;28;20056;-72